sensor_id;sensor_type;location;lat;lon;timestamp;pressure;altitude;pressure_sealevel;temperature;humidity
9462;BME280;4769;42.660;23.262;2023-05-23T00:00:48;93874.84;;;13.95;100.00
9462;BME280;4769;42.660;23.262;2023-05-23T00:03:14;93871.41;;;14.00;100.00
9462;BME280;4769;42.660;23.262;2023-05-23T00:05:39;93869.78;;;13.99;100.00
9462;BME280;4769;42.660;23.262;2023-05-23T00:08:05;93860.00;;;14.04;100.00
9462;BME280;4769;42.660;23.262;2023-05-23T00:10:31;93850.44;;;14.03;100.00
9462;BME280;4769;42.660;23.262;2023-05-23T00:12:56;93851.25;;;14.04;100.00
9462;BME280;4769;42.660;23.262;2023-05-23T00:15:25;93856.56;;;14.09;100.00
9462;BME280;4769;42.660;23.262;2023-05-23T00:17:50;93849.91;;;14.12;100.00
9462;BME280;4769;42.660;23.262;2023-05-23T00:20:16;93862.88;;;14.13;100.00
9462;BME280;4769;42.660;23.262;2023-05-23T00:22:42;93860.03;;;13.74;100.00
9462;BME280;4769;42.660;23.262;2023-05-23T00:25:08;93867.16;;;13.74;100.00
9462;BME280;4769;42.660;23.262;2023-05-23T00:27:34;93856.03;;;13.72;100.00
9462;BME280;4769;42.660;23.262;2023-05-23T00:30:00;93855.75;;;13.73;100.00
9462;BME280;4769;42.660;23.262;2023-05-23T00:32:28;93851.78;;;13.71;100.00
9462;BME280;4769;42.660;23.262;2023-05-23T00:34:54;93854.19;;;13.67;100.00
9462;BME280;4769;42.660;23.262;2023-05-23T00:37:19;93853.09;;;13.68;100.00
9462;BME280;4769;42.660;23.262;2023-05-23T00:39:45;93856.31;;;13.80;100.00
9462;BME280;4769;42.660;23.262;2023-05-23T00:42:11;93851.25;;;13.74;100.00
9462;BME280;4769;42.660;23.262;2023-05-23T00:44:37;93853.91;;;13.84;100.00
9462;BME280;4769;42.660;23.262;2023-05-23T00:47:03;93856.31;;;13.80;100.00
9462;BME280;4769;42.660;23.262;2023-05-23T00:49:31;93847.84;;;13.78;100.00
9462;BME280;4769;42.660;23.262;2023-05-23T00:51:57;93857.63;;;13.78;100.00
9462;BME280;4769;42.660;23.262;2023-05-23T00:54:25;93851.78;;;13.71;100.00
9462;BME280;4769;42.660;23.262;2023-05-23T00:56:53;93860.53;;;13.71;100.00
9462;BME280;4769;42.660;23.262;2023-05-23T00:59:20;93858.16;;;13.75;100.00
9462;BME280;4769;42.660;23.262;2023-05-23T01:01:47;93851.78;;;13.66;100.00
9462;BME280;4769;42.660;23.262;2023-05-23T01:04:15;93854.97;;;13.73;100.00
9462;BME280;4769;42.660;23.262;2023-05-23T01:06:44;93864.00;;;13.77;100.00
9462;BME280;4769;42.660;23.262;2023-05-23T01:09:10;93851.25;;;13.69;100.00
9462;BME280;4769;42.660;23.262;2023-05-23T01:11:41;93866.34;;;13.63;100.00
9462;BME280;4769;42.660;23.262;2023-05-23T01:14:11;93862.66;;;13.54;100.00
9462;BME280;4769;42.660;23.262;2023-05-23T01:16:43;93867.69;;;13.61;100.00
9462;BME280;4769;42.660;23.262;2023-05-23T01:19:24;93860.00;;;13.44;100.00
9462;BME280;4769;42.660;23.262;2023-05-23T01:21:56;93866.91;;;13.50;100.00
9462;BME280;4769;42.660;23.262;2023-05-23T01:24:35;93861.31;;;13.52;100.00
9462;BME280;4769;42.660;23.262;2023-05-23T01:27:07;93861.06;;;13.53;100.00
9462;BME280;4769;42.660;23.262;2023-05-23T01:29:43;93862.13;;;13.52;100.00
9462;BME280;4769;42.660;23.262;2023-05-23T01:32:11;93862.38;;;13.46;100.00
9462;BME280;4769;42.660;23.262;2023-05-23T01:34:37;93858.66;;;13.37;100.00
9462;BME280;4769;42.660;23.262;2023-05-23T01:37:07;93857.34;;;13.39;100.00
9462;BME280;4769;42.660;23.262;2023-05-23T01:39:33;93851.78;;;13.41;100.00
9462;BME280;4769;42.660;23.262;2023-05-23T01:41:58;93853.91;;;13.39;100.00
9462;BME280;4769;42.660;23.262;2023-05-23T01:44:24;93853.38;;;13.42;100.00
9462;BME280;4769;42.660;23.262;2023-05-23T01:46:52;93847.56;;;13.50;100.00
9462;BME280;4769;42.660;23.262;2023-05-23T01:49:20;93851.53;;;13.52;100.00
9462;BME280;4769;42.660;23.262;2023-05-23T01:51:47;93850.72;;;13.52;100.00
9462;BME280;4769;42.660;23.262;2023-05-23T01:54:14;93849.94;;;13.46;100.00
9462;BME280;4769;42.660;23.262;2023-05-23T01:56:41;93844.09;;;13.39;100.00
9462;BME280;4769;42.660;23.262;2023-05-23T01:59:07;93839.34;;;13.36;100.00
9462;BME280;4769;42.660;23.262;2023-05-23T02:01:33;93841.19;;;13.41;100.00
9462;BME280;4769;42.660;23.262;2023-05-23T02:04:02;93838.28;;;13.37;100.00
9462;BME280;4769;42.660;23.262;2023-05-23T02:06:28;93842.50;;;13.43;100.00
9462;BME280;4769;42.660;23.262;2023-05-23T02:08:54;93843.06;;;13.50;100.00
9462;BME280;4769;42.660;23.262;2023-05-23T02:11:20;93835.88;;;13.21;100.00
9462;BME280;4769;42.660;23.262;2023-05-23T02:13:45;93844.59;;;13.16;100.00
9462;BME280;4769;42.660;23.262;2023-05-23T02:16:11;93849.88;;;13.06;100.00
9462;BME280;4769;42.660;23.262;2023-05-23T02:18:37;93851.69;;;13.01;100.00
9462;BME280;4769;42.660;23.262;2023-05-23T02:21:05;93854.09;;;13.02;100.00
9462;BME280;4769;42.660;23.262;2023-05-23T02:23:31;93851.44;;;12.97;100.00
9462;BME280;4769;42.660;23.262;2023-05-23T02:25:57;93857.00;;;13.06;100.00
9462;BME280;4769;42.660;23.262;2023-05-23T02:28:22;93855.41;;;13.05;100.00
9462;BME280;4769;42.660;23.262;2023-05-23T02:30:48;93849.28;;;12.94;100.00
9462;BME280;4769;42.660;23.262;2023-05-23T02:33:14;93840.53;;;12.84;100.00
9462;BME280;4769;42.660;23.262;2023-05-23T02:35:40;93840.50;;;12.74;100.00
9462;BME280;4769;42.660;23.262;2023-05-23T02:38:08;93842.09;;;12.80;100.00
9462;BME280;4769;42.660;23.262;2023-05-23T02:40:34;93836.31;;;12.93;100.00
9462;BME280;4769;42.660;23.262;2023-05-23T02:42:59;93827.88;;;13.06;100.00
9462;BME280;4769;42.660;23.262;2023-05-23T02:45:25;93830.28;;;13.07;100.00
9462;BME280;4769;42.660;23.262;2023-05-23T02:47:51;93827.88;;;13.01;100.00
9462;BME280;4769;42.660;23.262;2023-05-23T02:50:16;93833.47;;;12.99;100.00
9462;BME280;4769;42.660;23.262;2023-05-23T02:52:42;93841.91;;;12.96;100.00
9462;BME280;4769;42.660;23.262;2023-05-23T02:55:11;93841.06;;;12.96;100.00
9462;BME280;4769;42.660;23.262;2023-05-23T02:57:36;93838.75;;;12.99;100.00
9462;BME280;4769;42.660;23.262;2023-05-23T03:00:02;93836.31;;;12.88;100.00
9462;BME280;4769;42.660;23.262;2023-05-23T03:02:28;93835.25;;;12.89;100.00
9462;BME280;4769;42.660;23.262;2023-05-23T03:04:54;93843.19;;;12.89;100.00
9462;BME280;4769;42.660;23.262;2023-05-23T03:07:20;93841.88;;;12.91;100.00
9462;BME280;4769;42.660;23.262;2023-05-23T03:09:45;93848.47;;;12.89;100.00
9462;BME280;4769;42.660;23.262;2023-05-23T03:12:14;93852.19;;;12.88;100.00
9462;BME280;4769;42.660;23.262;2023-05-23T03:14:39;93844.50;;;12.86;100.00
9462;BME280;4769;42.660;23.262;2023-05-23T03:17:05;93836.00;;;12.84;100.00
9462;BME280;4769;42.660;23.262;2023-05-23T03:19:31;93842.38;;;12.83;100.00
9462;BME280;4769;42.660;23.262;2023-05-23T03:21:56;93845.00;;;12.78;100.00
9462;BME280;4769;42.660;23.262;2023-05-23T03:24:22;93844.19;;;12.73;100.00
9462;BME280;4769;42.660;23.262;2023-05-23T03:26:48;93850.03;;;12.80;100.00
9462;BME280;4769;42.660;23.262;2023-05-23T03:29:16;93850.06;;;12.90;100.00
9462;BME280;4769;42.660;23.262;2023-05-23T03:31:44;93835.78;;;12.91;100.00
9462;BME280;4769;42.660;23.262;2023-05-23T03:34:10;93828.94;;;13.00;100.00
9462;BME280;4769;42.660;23.262;2023-05-23T03:36:36;93851.22;;;13.14;100.00
9462;BME280;4769;42.660;23.262;2023-05-23T03:39:04;93853.34;;;13.12;100.00
9462;BME280;4769;42.660;23.262;2023-05-23T03:41:30;93854.63;;;12.99;100.00
9462;BME280;4769;42.660;23.262;2023-05-23T03:44:03;93854.84;;;12.93;100.00
9462;BME280;4769;42.660;23.262;2023-05-23T03:46:32;93870.53;;;13.04;100.00
9462;BME280;4769;42.660;23.262;2023-05-23T03:49:00;93867.88;;;13.04;100.00
9462;BME280;4769;42.660;23.262;2023-05-23T03:51:26;93859.94;;;13.04;100.00
9462;BME280;4769;42.660;23.262;2023-05-23T03:53:52;93875.03;;;13.09;100.00
9462;BME280;4769;42.660;23.262;2023-05-23T03:56:18;93879.78;;;13.07;100.00
9462;BME280;4769;42.660;23.262;2023-05-23T03:58:44;93876.91;;;13.13;100.00
9462;BME280;4769;42.660;23.262;2023-05-23T04:01:09;93876.63;;;13.15;100.00
9462;BME280;4769;42.660;23.262;2023-05-23T04:03:38;93877.16;;;13.07;100.00
9462;BME280;4769;42.660;23.262;2023-05-23T04:06:04;93875.56;;;13.11;100.00
9462;BME280;4769;42.660;23.262;2023-05-23T04:08:32;93870.28;;;13.21;100.00
9462;BME280;4769;42.660;23.262;2023-05-23T04:10:57;93866.34;;;13.28;100.00
9462;BME280;4769;42.660;23.262;2023-05-23T04:13:23;93864.22;;;13.35;100.00
9462;BME280;4769;42.660;23.262;2023-05-23T04:15:49;93870.31;;;13.41;100.00
9462;BME280;4769;42.660;23.262;2023-05-23T04:18:15;93861.31;;;13.37;100.00
9462;BME280;4769;42.660;23.262;2023-05-23T04:20:45;93871.91;;;13.52;100.00
9462;BME280;4769;42.660;23.262;2023-05-23T04:23:11;93863.44;;;13.40;100.00
9462;BME280;4769;42.660;23.262;2023-05-23T04:25:37;93856.53;;;13.29;100.00
9462;BME280;4769;42.660;23.262;2023-05-23T04:28:03;93861.28;;;13.27;100.00
9462;BME280;4769;42.660;23.262;2023-05-23T04:30:29;93850.16;;;13.20;100.00
9462;BME280;4769;42.660;23.262;2023-05-23T04:32:55;93857.06;;;13.21;100.00
9462;BME280;4769;42.660;23.262;2023-05-23T04:35:20;93864.75;;;13.22;100.00
9462;BME280;4769;42.660;23.262;2023-05-23T04:37:49;93863.69;;;13.23;100.00
9462;BME280;4769;42.660;23.262;2023-05-23T04:40:14;93866.09;;;13.35;100.00
9462;BME280;4769;42.660;23.262;2023-05-23T04:42:40;93871.66;;;13.58;100.00
9462;BME280;4769;42.660;23.262;2023-05-23T04:45:07;93864.00;;;13.67;100.00
9462;BME280;4769;42.660;23.262;2023-05-23T04:47:33;93876.44;;;13.56;100.00
9462;BME280;4769;42.660;23.262;2023-05-23T04:49:59;93877.25;;;13.67;100.00
9462;BME280;4769;42.660;23.262;2023-05-23T04:52:25;93885.19;;;13.87;100.00
9462;BME280;4769;42.660;23.262;2023-05-23T04:54:53;93886.50;;;13.94;100.00
9462;BME280;4769;42.660;23.262;2023-05-23T04:57:19;93890.47;;;14.07;100.00
9462;BME280;4769;42.660;23.262;2023-05-23T04:59:45;93889.97;;;14.20;100.00
9462;BME280;4769;42.660;23.262;2023-05-23T05:02:10;93890.72;;;14.36;100.00
9462;BME280;4769;42.660;23.262;2023-05-23T05:04:36;93890.47;;;14.37;100.00
9462;BME280;4769;42.660;23.262;2023-05-23T05:07:02;93893.63;;;14.49;100.00
9462;BME280;4769;42.660;23.262;2023-05-23T05:09:28;93882.94;;;14.64;100.00
9462;BME280;4769;42.660;23.262;2023-05-23T05:11:56;93891.19;;;14.68;100.00
9462;BME280;4769;42.660;23.262;2023-05-23T05:14:22;93891.50;;;14.56;100.00
9462;BME280;4769;42.660;23.262;2023-05-23T05:16:47;93892.84;;;14.44;100.00
9462;BME280;4769;42.660;23.262;2023-05-23T05:19:13;93894.66;;;14.58;100.00
9462;BME280;4769;42.660;23.262;2023-05-23T05:21:39;93895.97;;;14.61;100.00
9462;BME280;4769;42.660;23.262;2023-05-23T05:24:05;93893.28;;;14.71;100.00
9462;BME280;4769;42.660;23.262;2023-05-23T05:26:30;93898.31;;;14.77;100.00
9462;BME280;4769;42.660;23.262;2023-05-23T05:28:59;93886.59;;;14.93;100.00
9462;BME280;4769;42.660;23.262;2023-05-23T05:31:24;93879.63;;;15.07;100.00
9462;BME280;4769;42.660;23.262;2023-05-23T05:33:50;93884.84;;;15.22;100.00
9462;BME280;4769;42.660;23.262;2023-05-23T05:36:16;93891.69;;;15.33;100.00
9462;BME280;4769;42.660;23.262;2023-05-23T05:38:42;93894.00;;;15.50;100.00
9462;BME280;4769;42.660;23.262;2023-05-23T05:41:07;93900.09;;;15.55;100.00
9462;BME280;4769;42.660;23.262;2023-05-23T05:43:33;93903.22;;;15.67;100.00
9462;BME280;4769;42.660;23.262;2023-05-23T05:46:03;93899.72;;;15.72;100.00
9462;BME280;4769;42.660;23.262;2023-05-23T05:48:28;93904.13;;;15.48;100.00
9462;BME280;4769;42.660;23.262;2023-05-23T05:50:54;93910.63;;;15.70;100.00
9462;BME280;4769;42.660;23.262;2023-05-23T05:53:20;93911.53;;;15.89;100.00
9462;BME280;4769;42.660;23.262;2023-05-23T05:55:45;93911.00;;;15.92;100.00
9462;BME280;4769;42.660;23.262;2023-05-23T05:58:11;93902.50;;;15.90;100.00
9462;BME280;4769;42.660;23.262;2023-05-23T06:00:37;93910.59;;;16.09;100.00
9462;BME280;4769;42.660;23.262;2023-05-23T06:03:05;93907.97;;;16.37;100.00
9462;BME280;4769;42.660;23.262;2023-05-23T06:05:31;93910.41;;;16.62;100.00
9462;BME280;4769;42.660;23.262;2023-05-23T06:07:57;93900.31;;;16.59;100.00
9462;BME280;4769;42.660;23.262;2023-05-23T06:10:22;93906.88;;;16.38;100.00
9462;BME280;4769;42.660;23.262;2023-05-23T06:12:48;93900.19;;;16.46;100.00
9462;BME280;4769;42.660;23.262;2023-05-23T06:15:14;93907.66;;;16.44;100.00
9462;BME280;4769;42.660;23.262;2023-05-23T06:17:40;93903.00;;;16.83;100.00
9462;BME280;4769;42.660;23.262;2023-05-23T06:20:10;93908.63;;;17.23;99.52
9462;BME280;4769;42.660;23.262;2023-05-23T06:22:36;93906.31;;;17.59;98.96
9462;BME280;4769;42.660;23.262;2023-05-23T06:25:02;93904.25;;;17.93;97.07
9462;BME280;4769;42.660;23.262;2023-05-23T06:27:28;93907.28;;;18.18;95.48
9462;BME280;4769;42.660;23.262;2023-05-23T06:29:54;93913.34;;;18.42;93.35
9462;BME280;4769;42.660;23.262;2023-05-23T06:32:19;93907.03;;;18.52;91.85
9462;BME280;4769;42.660;23.262;2023-05-23T06:34:45;93915.22;;;18.55;90.58
9462;BME280;4769;42.660;23.262;2023-05-23T06:37:14;93906.41;;;18.41;91.34
9462;BME280;4769;42.660;23.262;2023-05-23T06:39:39;93903.31;;;18.34;92.59
9462;BME280;4769;42.660;23.262;2023-05-23T06:42:06;93897.91;;;18.53;90.72
9462;BME280;4769;42.660;23.262;2023-05-23T06:44:32;93907.25;;;18.69;90.82
9462;BME280;4769;42.660;23.262;2023-05-23T06:46:57;93898.19;;;18.97;89.98
9462;BME280;4769;42.660;23.262;2023-05-23T06:49:23;93895.50;;;19.10;88.48
9462;BME280;4769;42.660;23.262;2023-05-23T06:51:49;93894.63;;;19.28;86.87
9462;BME280;4769;42.660;23.262;2023-05-23T06:54:18;93885.00;;;19.54;85.77
9462;BME280;4769;42.660;23.262;2023-05-23T06:56:44;93891.00;;;19.73;85.40
9462;BME280;4769;42.660;23.262;2023-05-23T06:59:09;93880.81;;;19.97;85.63
9462;BME280;4769;42.660;23.262;2023-05-23T07:01:35;93889.47;;;20.16;84.91
9462;BME280;4769;42.660;23.262;2023-05-23T07:04:01;93889.53;;;20.25;83.87
9462;BME280;4769;42.660;23.262;2023-05-23T07:06:26;93891.31;;;20.29;82.57
9462;BME280;4769;42.660;23.262;2023-05-23T07:08:52;93886.06;;;20.24;81.48
9462;BME280;4769;42.660;23.262;2023-05-23T07:11:21;93889.66;;;20.42;81.39
9462;BME280;4769;42.660;23.262;2023-05-23T07:13:46;93872.47;;;20.73;79.17
9462;BME280;4769;42.660;23.262;2023-05-23T07:16:12;93877.16;;;20.90;78.17
9462;BME280;4769;42.660;23.262;2023-05-23T07:18:38;93878.22;;;20.89;78.94
9462;BME280;4769;42.660;23.262;2023-05-23T07:21:04;93870.31;;;20.75;77.83
9462;BME280;4769;42.660;23.262;2023-05-23T07:23:31;93871.59;;;20.86;78.92
9462;BME280;4769;42.660;23.262;2023-05-23T07:25:57;93861.69;;;20.87;78.44
9462;BME280;4769;42.660;23.262;2023-05-23T07:28:25;93859.16;;;21.29;76.64
9462;BME280;4769;42.660;23.262;2023-05-23T07:30:51;93858.22;;;21.34;76.67
9462;BME280;4769;42.660;23.262;2023-05-23T07:33:17;93862.38;;;21.57;76.87
9462;BME280;4769;42.660;23.262;2023-05-23T07:35:43;93857.38;;;21.89;74.58
9462;BME280;4769;42.660;23.262;2023-05-23T07:38:08;93858.78;;;22.12;72.02
9462;BME280;4769;42.660;23.262;2023-05-23T07:40:34;93857.66;;;22.13;71.56
9462;BME280;4769;42.660;23.262;2023-05-23T07:43:00;93853.06;;;22.22;72.17
9462;BME280;4769;42.660;23.262;2023-05-23T07:45:28;93851.47;;;22.55;72.06
9462;BME280;4769;42.660;23.262;2023-05-23T07:47:54;93849.72;;;22.68;70.32
9462;BME280;4769;42.660;23.262;2023-05-23T07:50:19;93847.00;;;22.76;68.87
9462;BME280;4769;42.660;23.262;2023-05-23T07:52:45;93842.31;;;22.56;70.08
9462;BME280;4769;42.660;23.262;2023-05-23T07:55:11;93848.88;;;22.76;70.41
9462;BME280;4769;42.660;23.262;2023-05-23T07:57:37;93841.50;;;23.02;69.48
9462;BME280;4769;42.660;23.262;2023-05-23T08:00:03;93836.28;;;23.43;68.67
9462;BME280;4769;42.660;23.262;2023-05-23T08:02:32;93838.06;;;23.59;68.02
9462;BME280;4769;42.660;23.262;2023-05-23T08:04:57;93835.81;;;23.61;67.50
9462;BME280;4769;42.660;23.262;2023-05-23T08:07:23;93838.09;;;23.51;66.32
9462;BME280;4769;42.660;23.262;2023-05-23T08:09:49;93834.38;;;23.64;66.22
9462;BME280;4769;42.660;23.262;2023-05-23T08:12:15;93834.72;;;24.04;65.52
9462;BME280;4769;42.660;23.262;2023-05-23T08:14:41;93834.31;;;24.14;64.39
9462;BME280;4769;42.660;23.262;2023-05-23T08:17:06;93828.25;;;24.37;62.43
9462;BME280;4769;42.660;23.262;2023-05-23T08:19:35;93831.69;;;24.26;62.17
9462;BME280;4769;42.660;23.262;2023-05-23T08:22:00;93824.63;;;24.33;62.28
9462;BME280;4769;42.660;23.262;2023-05-23T08:24:26;93831.03;;;24.29;62.56
9462;BME280;4769;42.660;23.262;2023-05-23T08:26:52;93828.69;;;24.07;63.84
9462;BME280;4769;42.660;23.262;2023-05-23T08:29:17;93820.78;;;23.81;63.66
9462;BME280;4769;42.660;23.262;2023-05-23T08:31:43;93828.59;;;23.74;64.26
9462;BME280;4769;42.660;23.262;2023-05-23T08:34:10;93833.03;;;23.99;64.23
9462;BME280;4769;42.660;23.262;2023-05-23T08:36:38;93830.06;;;24.13;65.88
9462;BME280;4769;42.660;23.262;2023-05-23T08:39:04;93828.38;;;24.73;62.50
9462;BME280;4769;42.660;23.262;2023-05-23T08:41:30;93823.53;;;24.79;61.55
9462;BME280;4769;42.660;23.262;2023-05-23T08:43:56;93825.03;;;25.00;57.25
9462;BME280;4769;42.660;23.262;2023-05-23T08:46:22;93823.03;;;25.33;56.14
9462;BME280;4769;42.660;23.262;2023-05-23T08:48:51;93820.56;;;25.52;55.13
9462;BME280;4769;42.660;23.262;2023-05-23T08:51:18;93809.91;;;25.83;54.78
9462;BME280;4769;42.660;23.262;2023-05-23T08:53:48;93806.72;;;25.06;54.46
9462;BME280;4769;42.660;23.262;2023-05-23T08:56:14;93799.41;;;24.82;57.92
9462;BME280;4769;42.660;23.262;2023-05-23T08:58:40;93813.00;;;24.98;57.05
9462;BME280;4769;42.660;23.262;2023-05-23T09:01:07;93810.19;;;25.18;56.95
9462;BME280;4769;42.660;23.262;2023-05-23T09:03:34;93812.88;;;25.66;54.93
9462;BME280;4769;42.660;23.262;2023-05-23T09:06:04;93799.84;;;25.56;52.96
9462;BME280;4769;42.660;23.262;2023-05-23T09:08:31;93806.44;;;25.83;52.13
9462;BME280;4769;42.660;23.262;2023-05-23T09:11:00;93804.38;;;25.92;52.71
9462;BME280;4769;42.660;23.262;2023-05-23T09:13:26;93809.56;;;26.24;50.99
9462;BME280;4769;42.660;23.262;2023-05-23T09:16:02;93807.78;;;26.16;49.21
9462;BME280;4769;42.660;23.262;2023-05-23T09:18:32;93797.69;;;26.13;49.51
9462;BME280;4769;42.660;23.262;2023-05-23T09:20:58;93805.44;;;26.15;48.75
9462;BME280;4769;42.660;23.262;2023-05-23T09:23:24;93796.25;;;26.59;47.22
9462;BME280;4769;42.660;23.262;2023-05-23T09:25:50;93796.53;;;26.69;44.21
9462;BME280;4769;42.660;23.262;2023-05-23T09:28:18;93791.03;;;26.97;43.95
9462;BME280;4769;42.660;23.262;2023-05-23T09:30:44;93789.09;;;26.66;45.30
9462;BME280;4769;42.660;23.262;2023-05-23T09:33:13;93794.88;;;26.96;42.54
9462;BME280;4769;42.660;23.262;2023-05-23T09:35:43;93796.78;;;26.37;42.06
9462;BME280;4769;42.660;23.262;2023-05-23T09:38:09;93786.16;;;26.87;42.94
9462;BME280;4769;42.660;23.262;2023-05-23T09:40:35;93788.50;;;26.88;41.06
9462;BME280;4769;42.660;23.262;2023-05-23T09:43:01;93779.97;;;26.71;41.06
9462;BME280;4769;42.660;23.262;2023-05-23T09:45:31;93776.47;;;26.86;39.51
9462;BME280;4769;42.660;23.262;2023-05-23T09:47:57;93776.66;;;26.07;38.61
9462;BME280;4769;42.660;23.262;2023-05-23T09:50:25;93782.28;;;26.72;38.19
9462;BME280;4769;42.660;23.262;2023-05-23T09:52:55;93768.56;;;27.43;37.87
9462;BME280;4769;42.660;23.262;2023-05-23T09:55:21;93766.22;;;27.76;37.39
9462;BME280;4769;42.660;23.262;2023-05-23T09:57:52;93767.09;;;28.37;37.01
9462;BME280;4769;42.660;23.262;2023-05-23T10:00:19;93773.75;;;28.39;36.83
9462;BME280;4769;42.660;23.262;2023-05-23T10:03:00;93759.69;;;28.53;34.87
9462;BME280;4769;42.660;23.262;2023-05-23T10:05:32;93767.53;;;28.39;34.02
9462;BME280;4769;42.660;23.262;2023-05-23T10:08:00;93767.53;;;28.58;33.04
9462;BME280;4769;42.660;23.262;2023-05-23T10:10:30;93759.97;;;28.48;33.28
9462;BME280;4769;42.660;23.262;2023-05-23T10:12:57;93762.91;;;29.03;34.56
9462;BME280;4769;42.660;23.262;2023-05-23T10:15:26;93761.06;;;28.66;32.59
9462;BME280;4769;42.660;23.262;2023-05-23T10:18:07;93765.53;;;27.44;35.08
9462;BME280;4769;42.660;23.262;2023-05-23T10:20:35;93759.97;;;27.06;36.14
9462;BME280;4769;42.660;23.262;2023-05-23T10:23:02;93764.38;;;27.45;34.53
9462;BME280;4769;42.660;23.262;2023-05-23T10:25:28;93760.09;;;28.36;33.90
9462;BME280;4769;42.660;23.262;2023-05-23T10:27:56;93752.22;;;29.14;32.25
9462;BME280;4769;42.660;23.262;2023-05-23T10:30:22;93756.19;;;29.20;32.20
9462;BME280;4769;42.660;23.262;2023-05-23T10:32:48;93762.66;;;29.12;32.43
9462;BME280;4769;42.660;23.262;2023-05-23T10:35:21;93753.34;;;28.90;32.81
9462;BME280;4769;42.660;23.262;2023-05-23T10:40:45;93739.94;;;30.05;31.31
9462;BME280;4769;42.660;23.262;2023-05-23T10:43:24;93731.41;;;30.39;29.81
9462;BME280;4769;42.660;23.262;2023-05-23T10:45:50;93751.34;;;30.14;30.50
9462;BME280;4769;42.660;23.262;2023-05-23T10:48:30;93737.41;;;29.89;29.69
9462;BME280;4769;42.660;23.262;2023-05-23T10:51:06;93731.59;;;29.35;29.36
9462;BME280;4769;42.660;23.262;2023-05-23T10:53:34;93726.09;;;30.13;29.12
9462;BME280;4769;42.660;23.262;2023-05-23T10:56:00;93729.81;;;30.02;29.63
9462;BME280;4769;42.660;23.262;2023-05-23T10:58:28;93729.84;;;28.15;30.63
9462;BME280;4769;42.660;23.262;2023-05-23T11:00:56;93733.69;;;28.33;32.07
9462;BME280;4769;42.660;23.262;2023-05-23T11:03:31;93736.06;;;28.15;31.76
9462;BME280;4769;42.660;23.262;2023-05-23T11:05:57;93724.00;;;27.21;32.81
9462;BME280;4769;42.660;23.262;2023-05-23T11:08:28;93727.97;;;28.79;30.33
9462;BME280;4769;42.660;23.262;2023-05-23T11:11:01;93724.03;;;29.74;29.48
9462;BME280;4769;42.660;23.262;2023-05-23T11:13:56;93716.44;;;30.56;28.19
9462;BME280;4769;42.660;23.262;2023-05-23T11:16:26;93715.94;;;30.83;28.07
9462;BME280;4769;42.660;23.262;2023-05-23T11:18:51;93718.34;;;30.15;28.77
9462;BME280;4769;42.660;23.262;2023-05-23T11:21:22;93711.06;;;30.26;28.44
9462;BME280;4769;42.660;23.262;2023-05-23T11:23:53;93707.78;;;29.81;29.26
9462;BME280;4769;42.660;23.262;2023-05-23T11:26:29;93717.00;;;29.21;29.81
9462;BME280;4769;42.660;23.262;2023-05-23T11:28:55;93713.63;;;29.01;29.67
9462;BME280;4769;42.660;23.262;2023-05-23T11:31:21;93713.06;;;28.92;29.90
9462;BME280;4769;42.660;23.262;2023-05-23T11:33:49;93702.03;;;29.86;29.41
9462;BME280;4769;42.660;23.262;2023-05-23T11:36:15;93696.31;;;31.07;27.72
9462;BME280;4769;42.660;23.262;2023-05-23T11:38:41;93691.25;;;31.09;26.84
9462;BME280;4769;42.660;23.262;2023-05-23T11:41:10;93691.63;;;31.08;26.24
9462;BME280;4769;42.660;23.262;2023-05-23T11:43:36;93695.56;;;31.71;26.21
9462;BME280;4769;42.660;23.262;2023-05-23T11:46:06;93689.66;;;31.01;26.34
9462;BME280;4769;42.660;23.262;2023-05-23T11:48:32;93693.88;;;30.99;26.73
9462;BME280;4769;42.660;23.262;2023-05-23T11:50:58;93687.81;;;31.19;26.85
9462;BME280;4769;42.660;23.262;2023-05-23T11:53:26;93691.59;;;31.04;26.66
9462;BME280;4769;42.660;23.262;2023-05-23T11:55:54;93690.72;;;31.44;27.24
9462;BME280;4769;42.660;23.262;2023-05-23T11:58:26;93689.88;;;32.01;25.53
9462;BME280;4769;42.660;23.262;2023-05-23T12:00:56;93676.44;;;32.85;24.44
9462;BME280;4769;42.660;23.262;2023-05-23T12:03:22;93676.25;;;32.12;24.69
9462;BME280;4769;42.660;23.262;2023-05-23T12:05:48;93675.28;;;32.83;24.88
9462;BME280;4769;42.660;23.262;2023-05-23T12:08:14;93665.53;;;33.10;24.53
9462;BME280;4769;42.660;23.262;2023-05-23T12:10:48;93660.00;;;33.55;25.72
9462;BME280;4769;42.660;23.262;2023-05-23T12:13:14;93663.09;;;33.82;24.03
9462;BME280;4769;42.660;23.262;2023-05-23T12:15:42;93662.94;;;34.13;26.04
9462;BME280;4769;42.660;23.262;2023-05-23T12:18:08;93663.34;;;34.08;23.85
9462;BME280;4769;42.660;23.262;2023-05-23T12:20:34;93647.22;;;34.35;24.54
9462;BME280;4769;42.660;23.262;2023-05-23T12:23:03;93658.53;;;34.40;23.84
9462;BME280;4769;42.660;23.262;2023-05-23T12:25:37;93652.13;;;34.57;23.00
9462;BME280;4769;42.660;23.262;2023-05-23T12:28:03;93639.31;;;34.47;24.54
9462;BME280;4769;42.660;23.262;2023-05-23T12:30:42;93637.53;;;34.78;23.66
9462;BME280;4769;42.660;23.262;2023-05-23T12:33:09;93636.38;;;35.23;25.00
9462;BME280;4769;42.660;23.262;2023-05-23T12:35:34;93630.28;;;33.64;23.85
9462;BME280;4769;42.660;23.262;2023-05-23T12:38:00;93634.00;;;31.63;25.42
9462;BME280;4769;42.660;23.262;2023-05-23T12:40:27;93632.75;;;32.61;25.88
9462;BME280;4769;42.660;23.262;2023-05-23T12:42:54;93630.25;;;33.75;24.69
9462;BME280;4769;42.660;23.262;2023-05-23T12:45:22;93635.47;;;34.38;23.48
9462;BME280;4769;42.660;23.262;2023-05-23T12:47:51;93627.91;;;34.52;22.91
9462;BME280;4769;42.660;23.262;2023-05-23T12:50:16;93631.22;;;34.30;22.95
9462;BME280;4769;42.660;23.262;2023-05-23T12:52:42;93619.22;;;33.99;22.82
9462;BME280;4769;42.660;23.262;2023-05-23T12:55:09;93614.69;;;33.61;22.42
9462;BME280;4769;42.660;23.262;2023-05-23T12:57:35;93615.44;;;33.65;23.34
9462;BME280;4769;42.660;23.262;2023-05-23T13:00:01;93607.16;;;33.93;23.32
9462;BME280;4769;42.660;23.262;2023-05-23T13:02:27;93601.81;;;34.92;22.66
9462;BME280;4769;42.660;23.262;2023-05-23T13:04:55;93609.44;;;35.14;22.25
9462;BME280;4769;42.660;23.262;2023-05-23T13:07:21;93607.88;;;34.04;22.42